sensor_id;sensor_type;location;lat;lon;timestamp;temperature;humidity
3086;DHT22;52812;48.960;9.108;2023-04-15T00:00:40;2.80;99.90
3086;DHT22;52812;48.960;9.108;2023-04-15T00:03:06;2.80;99.90
3086;DHT22;52812;48.960;9.108;2023-04-15T00:05:32;2.70;99.90
3086;DHT22;52812;48.960;9.108;2023-04-15T00:07:58;2.80;99.90
3086;DHT22;52812;48.960;9.108;2023-04-15T00:10:25;2.80;99.90
3086;DHT22;52812;48.960;9.108;2023-04-15T00:12:51;2.90;99.90
3086;DHT22;52812;48.960;9.108;2023-04-15T00:15:17;2.90;99.90
3086;DHT22;52812;48.960;9.108;2023-04-15T00:17:43;2.80;99.90
3086;DHT22;52812;48.960;9.108;2023-04-15T00:20:09;2.80;99.90
3086;DHT22;52812;48.960;9.108;2023-04-15T00:22:35;2.80;99.90
3086;DHT22;52812;48.960;9.108;2023-04-15T00:25:01;2.70;99.90
3086;DHT22;52812;48.960;9.108;2023-04-15T00:27:26;2.70;99.90
3086;DHT22;52812;48.960;9.108;2023-04-15T00:29:52;2.60;99.90
3086;DHT22;52812;48.960;9.108;2023-04-15T00:32:18;2.60;99.90
3086;DHT22;52812;48.960;9.108;2023-04-15T00:34:44;2.50;99.90
3086;DHT22;52812;48.960;9.108;2023-04-15T00:37:10;2.60;99.90
3086;DHT22;52812;48.960;9.108;2023-04-15T00:39:36;2.60;99.90
3086;DHT22;52812;48.960;9.108;2023-04-15T00:42:04;2.50;99.90
3086;DHT22;52812;48.960;9.108;2023-04-15T00:44:30;2.50;99.90
3086;DHT22;52812;48.960;9.108;2023-04-15T00:46:56;2.50;99.90
3086;DHT22;52812;48.960;9.108;2023-04-15T00:49:22;2.50;99.90
3086;DHT22;52812;48.960;9.108;2023-04-15T00:51:48;2.40;99.90
3086;DHT22;52812;48.960;9.108;2023-04-15T00:54:13;2.40;99.90
3086;DHT22;52812;48.960;9.108;2023-04-15T00:56:39;2.40;99.90
3086;DHT22;52812;48.960;9.108;2023-04-15T00:59:05;2.40;99.90
3086;DHT22;52812;48.960;9.108;2023-04-15T01:01:33;2.40;99.90
3086;DHT22;52812;48.960;9.108;2023-04-15T01:03:59;2.30;99.90
3086;DHT22;52812;48.960;9.108;2023-04-15T01:06:25;2.20;99.90
3086;DHT22;52812;48.960;9.108;2023-04-15T01:08:56;2.00;99.90
3086;DHT22;52812;48.960;9.108;2023-04-15T01:11:22;2.00;99.90
3086;DHT22;52812;48.960;9.108;2023-04-15T01:13:49;1.90;99.90
3086;DHT22;52812;48.960;9.108;2023-04-15T01:16:15;1.90;99.90
3086;DHT22;52812;48.960;9.108;2023-04-15T01:18:41;1.90;99.90
3086;DHT22;52812;48.960;9.108;2023-04-15T01:21:07;2.00;99.90
3086;DHT22;52812;48.960;9.108;2023-04-15T01:23:35;1.90;99.90
3086;DHT22;52812;48.960;9.108;2023-04-15T01:26:02;2.00;99.90
3086;DHT22;52812;48.960;9.108;2023-04-15T01:28:28;2.00;99.90
3086;DHT22;52812;48.960;9.108;2023-04-15T01:31:10;2.00;99.90
3086;DHT22;52812;48.960;9.108;2023-04-15T01:33:37;2.10;99.90
3086;DHT22;52812;48.960;9.108;2023-04-15T01:36:04;2.10;99.90
3086;DHT22;52812;48.960;9.108;2023-04-15T01:38:30;2.10;99.90
3086;DHT22;52812;48.960;9.108;2023-04-15T01:40:56;2.10;99.90
3086;DHT22;52812;48.960;9.108;2023-04-15T01:43:22;2.20;99.90
3086;DHT22;52812;48.960;9.108;2023-04-15T01:45:48;2.20;99.90
3086;DHT22;52812;48.960;9.108;2023-04-15T01:48:13;2.10;99.90
3086;DHT22;52812;48.960;9.108;2023-04-15T01:50:39;2.10;99.90
3086;DHT22;52812;48.960;9.108;2023-04-15T01:53:04;2.00;99.90
3086;DHT22;52812;48.960;9.108;2023-04-15T01:55:30;1.90;99.90
3086;DHT22;52812;48.960;9.108;2023-04-15T01:57:56;1.90;99.90
3086;DHT22;52812;48.960;9.108;2023-04-15T02:00:22;1.90;99.90
3086;DHT22;52812;48.960;9.108;2023-04-15T02:02:48;1.90;99.90
3086;DHT22;52812;48.960;9.108;2023-04-15T02:05:14;1.90;99.90
3086;DHT22;52812;48.960;9.108;2023-04-15T02:07:41;1.80;99.90
3086;DHT22;52812;48.960;9.108;2023-04-15T02:10:08;1.80;99.90
3086;DHT22;52812;48.960;9.108;2023-04-15T02:12:33;1.80;99.90
3086;DHT22;52812;48.960;9.108;2023-04-15T02:14:59;1.80;99.90
3086;DHT22;52812;48.960;9.108;2023-04-15T02:17:24;1.70;99.90
3086;DHT22;52812;48.960;9.108;2023-04-15T02:19:50;1.70;99.90
3086;DHT22;52812;48.960;9.108;2023-04-15T02:22:15;1.70;99.90
3086;DHT22;52812;48.960;9.108;2023-04-15T02:24:42;1.60;99.90
3086;DHT22;52812;48.960;9.108;2023-04-15T02:27:08;1.60;99.90
3086;DHT22;52812;48.960;9.108;2023-04-15T02:29:34;1.60;99.90
3086;DHT22;52812;48.960;9.108;2023-04-15T02:31:59;1.60;99.90
3086;DHT22;52812;48.960;9.108;2023-04-15T02:34:25;1.60;99.90
3086;DHT22;52812;48.960;9.108;2023-04-15T02:36:51;1.60;99.90
3086;DHT22;52812;48.960;9.108;2023-04-15T02:39:21;1.60;99.90
3086;DHT22;52812;48.960;9.108;2023-04-15T02:41:47;1.60;99.90
3086;DHT22;52812;48.960;9.108;2023-04-15T02:44:16;1.60;99.90
3086;DHT22;52812;48.960;9.108;2023-04-15T02:46:45;1.50;99.90
3086;DHT22;52812;48.960;9.108;2023-04-15T02:49:15;1.50;99.90
3086;DHT22;52812;48.960;9.108;2023-04-15T02:51:40;1.50;99.90
3086;DHT22;52812;48.960;9.108;2023-04-15T02:54:06;1.40;99.90
3086;DHT22;52812;48.960;9.108;2023-04-15T02:56:33;1.40;99.90
3086;DHT22;52812;48.960;9.108;2023-04-15T02:58:58;1.40;99.90
3086;DHT22;52812;48.960;9.108;2023-04-15T03:01:24;1.30;99.90
3086;DHT22;52812;48.960;9.108;2023-04-15T03:03:50;1.30;99.90
3086;DHT22;52812;48.960;9.108;2023-04-15T03:06:16;1.30;99.90
3086;DHT22;52812;48.960;9.108;2023-04-15T03:08:41;1.40;99.90
3086;DHT22;52812;48.960;9.108;2023-04-15T03:11:07;1.40;99.90
3086;DHT22;52812;48.960;9.108;2023-04-15T03:13:33;1.50;99.90
3086;DHT22;52812;48.960;9.108;2023-04-15T03:15:58;1.50;99.90
3086;DHT22;52812;48.960;9.108;2023-04-15T03:18:24;1.40;99.90
3086;DHT22;52812;48.960;9.108;2023-04-15T03:20:50;1.30;99.90
3086;DHT22;52812;48.960;9.108;2023-04-15T03:23:15;1.30;99.90
3086;DHT22;52812;48.960;9.108;2023-04-15T03:25:41;1.30;99.90
3086;DHT22;52812;48.960;9.108;2023-04-15T03:28:07;1.30;99.90
3086;DHT22;52812;48.960;9.108;2023-04-15T03:30:32;1.20;99.90
3086;DHT22;52812;48.960;9.108;2023-04-15T03:32:58;1.20;99.90
3086;DHT22;52812;48.960;9.108;2023-04-15T03:35:23;1.30;99.90
3086;DHT22;52812;48.960;9.108;2023-04-15T03:37:49;1.30;99.90
3086;DHT22;52812;48.960;9.108;2023-04-15T03:40:15;1.40;99.90
3086;DHT22;52812;48.960;9.108;2023-04-15T03:42:40;1.50;99.90
3086;DHT22;52812;48.960;9.108;2023-04-15T03:45:06;1.50;99.90
3086;DHT22;52812;48.960;9.108;2023-04-15T03:47:32;1.50;99.90
3086;DHT22;52812;48.960;9.108;2023-04-15T03:49:57;1.40;99.90
3086;DHT22;52812;48.960;9.108;2023-04-15T03:52:23;1.30;99.90
3086;DHT22;52812;48.960;9.108;2023-04-15T03:54:49;1.30;99.90
3086;DHT22;52812;48.960;9.108;2023-04-15T03:57:14;1.20;99.90
3086;DHT22;52812;48.960;9.108;2023-04-15T03:59:40;1.20;99.90
3086;DHT22;52812;48.960;9.108;2023-04-15T04:02:05;1.30;99.90
3086;DHT22;52812;48.960;9.108;2023-04-15T04:04:31;1.20;99.90
3086;DHT22;52812;48.960;9.108;2023-04-15T04:06:56;1.10;99.90
3086;DHT22;52812;48.960;9.108;2023-04-15T04:09:22;1.20;99.90
3086;DHT22;52812;48.960;9.108;2023-04-15T04:11:47;1.20;99.90
3086;DHT22;52812;48.960;9.108;2023-04-15T04:14:13;1.10;99.90
3086;DHT22;52812;48.960;9.108;2023-04-15T04:16:38;1.10;99.90
3086;DHT22;52812;48.960;9.108;2023-04-15T04:19:04;1.10;99.90
3086;DHT22;52812;48.960;9.108;2023-04-15T04:21:29;1.00;99.90
3086;DHT22;52812;48.960;9.108;2023-04-15T04:23:55;1.00;99.90
3086;DHT22;52812;48.960;9.108;2023-04-15T04:26:21;0.90;99.90
3086;DHT22;52812;48.960;9.108;2023-04-15T04:28:47;0.90;99.90
3086;DHT22;52812;48.960;9.108;2023-04-15T04:31:12;0.90;99.90
3086;DHT22;52812;48.960;9.108;2023-04-15T04:33:38;0.90;99.90
3086;DHT22;52812;48.960;9.108;2023-04-15T04:36:04;0.90;99.90
3086;DHT22;52812;48.960;9.108;2023-04-15T04:38:29;0.90;99.90
3086;DHT22;52812;48.960;9.108;2023-04-15T04:40:55;0.90;99.90
3086;DHT22;52812;48.960;9.108;2023-04-15T04:43:21;1.00;99.90
3086;DHT22;52812;48.960;9.108;2023-04-15T04:45:46;1.20;99.90
3086;DHT22;52812;48.960;9.108;2023-04-15T04:48:12;1.20;99.90
3086;DHT22;52812;48.960;9.108;2023-04-15T04:50:38;1.30;99.90
3086;DHT22;52812;48.960;9.108;2023-04-15T04:53:03;1.30;99.90
3086;DHT22;52812;48.960;9.108;2023-04-15T04:55:29;1.20;99.90
3086;DHT22;52812;48.960;9.108;2023-04-15T04:57:56;1.10;99.90
3086;DHT22;52812;48.960;9.108;2023-04-15T05:00:21;1.10;99.90
3086;DHT22;52812;48.960;9.108;2023-04-15T05:02:47;1.10;99.90
3086;DHT22;52812;48.960;9.108;2023-04-15T05:05:13;1.10;99.90
3086;DHT22;52812;48.960;9.108;2023-04-15T05:07:38;1.00;99.90
3086;DHT22;52812;48.960;9.108;2023-04-15T05:10:04;1.00;99.90
3086;DHT22;52812;48.960;9.108;2023-04-15T05:12:31;1.10;99.90
3086;DHT22;52812;48.960;9.108;2023-04-15T05:14:56;1.10;99.90
3086;DHT22;52812;48.960;9.108;2023-04-15T05:17:22;1.10;99.90
3086;DHT22;52812;48.960;9.108;2023-04-15T05:19:47;1.10;99.90
3086;DHT22;52812;48.960;9.108;2023-04-15T05:22:13;1.10;99.90
3086;DHT22;52812;48.960;9.108;2023-04-15T05:24:38;1.20;99.90
3086;DHT22;52812;48.960;9.108;2023-04-15T05:27:04;1.20;99.90
3086;DHT22;52812;48.960;9.108;2023-04-15T05:29:30;1.30;99.90
3086;DHT22;52812;48.960;9.108;2023-04-15T05:31:55;1.40;99.90
3086;DHT22;52812;48.960;9.108;2023-04-15T05:34:21;1.50;99.90
3086;DHT22;52812;48.960;9.108;2023-04-15T05:36:47;1.60;99.90
3086;DHT22;52812;48.960;9.108;2023-04-15T05:39:12;1.90;99.90
3086;DHT22;52812;48.960;9.108;2023-04-15T05:41:38;2.10;99.90
3086;DHT22;52812;48.960;9.108;2023-04-15T05:44:04;2.50;99.90
3086;DHT22;52812;48.960;9.108;2023-04-15T05:46:29;2.80;99.90
3086;DHT22;52812;48.960;9.108;2023-04-15T05:48:55;3.30;99.90
3086;DHT22;52812;48.960;9.108;2023-04-15T05:51:20;3.80;99.90
3086;DHT22;52812;48.960;9.108;2023-04-15T05:53:46;4.40;99.90
3086;DHT22;52812;48.960;9.108;2023-04-15T05:56:12;4.90;99.90
3086;DHT22;52812;48.960;9.108;2023-04-15T05:58:37;5.30;99.90
3086;DHT22;52812;48.960;9.108;2023-04-15T06:01:03;5.50;99.90
3086;DHT22;52812;48.960;9.108;2023-04-15T06:03:28;5.80;99.90
3086;DHT22;52812;48.960;9.108;2023-04-15T06:05:54;6.40;99.90
3086;DHT22;52812;48.960;9.108;2023-04-15T06:08:20;6.60;99.90
3086;DHT22;52812;48.960;9.108;2023-04-15T06:10:46;6.60;99.90
3086;DHT22;52812;48.960;9.108;2023-04-15T06:13:12;6.40;99.90
3086;DHT22;52812;48.960;9.108;2023-04-15T06:15:37;6.30;99.90
3086;DHT22;52812;48.960;9.108;2023-04-15T06:18:03;6.40;99.90
3086;DHT22;52812;48.960;9.108;2023-04-15T06:20:29;6.50;99.90
3086;DHT22;52812;48.960;9.108;2023-04-15T06:22:55;6.70;99.90
3086;DHT22;52812;48.960;9.108;2023-04-15T06:25:21;7.30;99.90
3086;DHT22;52812;48.960;9.108;2023-04-15T06:27:47;7.70;99.90
3086;DHT22;52812;48.960;9.108;2023-04-15T06:30:13;7.90;99.90
3086;DHT22;52812;48.960;9.108;2023-04-15T06:32:38;8.20;99.90
3086;DHT22;52812;48.960;9.108;2023-04-15T06:35:04;8.70;99.90
3086;DHT22;52812;48.960;9.108;2023-04-15T06:37:30;9.10;99.90
3086;DHT22;52812;48.960;9.108;2023-04-15T06:39:56;9.40;99.90
3086;DHT22;52812;48.960;9.108;2023-04-15T06:42:21;9.60;99.90
3086;DHT22;52812;48.960;9.108;2023-04-15T06:44:47;9.80;99.90
3086;DHT22;52812;48.960;9.108;2023-04-15T06:47:13;10.00;99.90
3086;DHT22;52812;48.960;9.108;2023-04-15T06:49:39;9.80;99.90
3086;DHT22;52812;48.960;9.108;2023-04-15T06:52:05;9.80;99.90
3086;DHT22;52812;48.960;9.108;2023-04-15T06:54:31;9.60;99.90
3086;DHT22;52812;48.960;9.108;2023-04-15T06:56:56;9.60;99.90
3086;DHT22;52812;48.960;9.108;2023-04-15T06:59:22;9.60;99.90
3086;DHT22;52812;48.960;9.108;2023-04-15T07:01:48;9.70;99.90
3086;DHT22;52812;48.960;9.108;2023-04-15T07:04:14;9.80;99.90
3086;DHT22;52812;48.960;9.108;2023-04-15T07:06:39;9.60;99.90
3086;DHT22;52812;48.960;9.108;2023-04-15T07:09:06;9.20;99.90
3086;DHT22;52812;48.960;9.108;2023-04-15T07:11:31;8.80;99.90
3086;DHT22;52812;48.960;9.108;2023-04-15T07:13:57;8.50;99.90
3086;DHT22;52812;48.960;9.108;2023-04-15T07:16:23;8.20;99.90
3086;DHT22;52812;48.960;9.108;2023-04-15T07:18:48;7.80;99.90
3086;DHT22;52812;48.960;9.108;2023-04-15T07:21:14;7.60;99.90
3086;DHT22;52812;48.960;9.108;2023-04-15T07:23:40;7.40;99.90
3086;DHT22;52812;48.960;9.108;2023-04-15T07:26:07;7.20;99.90
3086;DHT22;52812;48.960;9.108;2023-04-15T07:28:33;7.20;99.90
3086;DHT22;52812;48.960;9.108;2023-04-15T07:30:58;7.30;99.90
3086;DHT22;52812;48.960;9.108;2023-04-15T07:33:24;7.30;99.90
3086;DHT22;52812;48.960;9.108;2023-04-15T07:35:49;7.40;99.90
3086;DHT22;52812;48.960;9.108;2023-04-15T07:38:15;7.60;99.90
3086;DHT22;52812;48.960;9.108;2023-04-15T07:40:41;7.80;99.90
3086;DHT22;52812;48.960;9.108;2023-04-15T07:43:07;8.20;99.90
3086;DHT22;52812;48.960;9.108;2023-04-15T07:45:33;8.80;99.90
3086;DHT22;52812;48.960;9.108;2023-04-15T07:48:00;9.40;99.90
3086;DHT22;52812;48.960;9.108;2023-04-15T07:50:26;9.80;99.90
3086;DHT22;52812;48.960;9.108;2023-04-15T07:52:51;10.50;99.90
3086;DHT22;52812;48.960;9.108;2023-04-15T07:55:18;10.60;99.90
3086;DHT22;52812;48.960;9.108;2023-04-15T07:57:47;10.30;99.90
3086;DHT22;52812;48.960;9.108;2023-04-15T08:00:15;10.40;99.90
3086;DHT22;52812;48.960;9.108;2023-04-15T08:02:41;10.70;99.90
3086;DHT22;52812;48.960;9.108;2023-04-15T08:05:08;10.90;99.90
3086;DHT22;52812;48.960;9.108;2023-04-15T08:07:36;11.20;99.90
3086;DHT22;52812;48.960;9.108;2023-04-15T08:10:01;11.40;99.90
3086;DHT22;52812;48.960;9.108;2023-04-15T08:12:27;11.60;99.90
3086;DHT22;52812;48.960;9.108;2023-04-15T08:14:54;11.90;99.90
3086;DHT22;52812;48.960;9.108;2023-04-15T08:17:19;12.10;99.90
3086;DHT22;52812;48.960;9.108;2023-04-15T08:19:45;12.40;99.90
3086;DHT22;52812;48.960;9.108;2023-04-15T08:22:12;12.30;99.90
3086;DHT22;52812;48.960;9.108;2023-04-15T08:24:38;12.50;99.90
3086;DHT22;52812;48.960;9.108;2023-04-15T08:27:04;12.60;99.90
3086;DHT22;52812;48.960;9.108;2023-04-15T08:29:33;12.70;99.90
3086;DHT22;52812;48.960;9.108;2023-04-15T08:31:59;12.20;99.90
3086;DHT22;52812;48.960;9.108;2023-04-15T08:34:26;11.90;99.90
3086;DHT22;52812;48.960;9.108;2023-04-15T08:36:51;12.00;99.90
3086;DHT22;52812;48.960;9.108;2023-04-15T08:39:17;12.30;99.90
3086;DHT22;52812;48.960;9.108;2023-04-15T08:41:51;12.30;99.90
3086;DHT22;52812;48.960;9.108;2023-04-15T08:44:22;12.40;99.90
3086;DHT22;52812;48.960;9.108;2023-04-15T08:46:49;12.30;99.90
3086;DHT22;52812;48.960;9.108;2023-04-15T08:49:16;12.10;99.90
3086;DHT22;52812;48.960;9.108;2023-04-15T08:51:43;12.20;99.90
3086;DHT22;52812;48.960;9.108;2023-04-15T08:54:10;12.20;99.90
3086;DHT22;52812;48.960;9.108;2023-04-15T08:56:35;12.40;99.90
3086;DHT22;52812;48.960;9.108;2023-04-15T08:59:03;12.30;99.90
3086;DHT22;52812;48.960;9.108;2023-04-15T09:01:30;12.30;99.90
3086;DHT22;52812;48.960;9.108;2023-04-15T09:03:56;12.60;99.90
3086;DHT22;52812;48.960;9.108;2023-04-15T09:06:23;12.40;99.90
3086;DHT22;52812;48.960;9.108;2023-04-15T09:08:50;12.60;99.90
3086;DHT22;52812;48.960;9.108;2023-04-15T09:11:16;12.60;99.90
3086;DHT22;52812;48.960;9.108;2023-04-15T09:13:45;12.80;99.90
3086;DHT22;52812;48.960;9.108;2023-04-15T09:16:13;12.90;99.90
3086;DHT22;52812;48.960;9.108;2023-04-15T09:18:39;13.20;99.90
3086;DHT22;52812;48.960;9.108;2023-04-15T09:21:13;13.60;99.90
3086;DHT22;52812;48.960;9.108;2023-04-15T09:23:53;13.60;99.90
3086;DHT22;52812;48.960;9.108;2023-04-15T09:26:32;13.40;99.90
3086;DHT22;52812;48.960;9.108;2023-04-15T09:29:06;13.50;99.90
3086;DHT22;52812;48.960;9.108;2023-04-15T09:31:32;13.40;99.90
3086;DHT22;52812;48.960;9.108;2023-04-15T09:33:58;13.40;99.90
3086;DHT22;52812;48.960;9.108;2023-04-15T09:36:23;13.40;99.90
3086;DHT22;52812;48.960;9.108;2023-04-15T09:38:59;13.60;99.90
3086;DHT22;52812;48.960;9.108;2023-04-15T09:41:25;13.60;99.90
3086;DHT22;52812;48.960;9.108;2023-04-15T09:43:51;13.90;99.90
3086;DHT22;52812;48.960;9.108;2023-04-15T09:46:17;14.20;99.90
3086;DHT22;52812;48.960;9.108;2023-04-15T09:48:43;14.10;99.90
3086;DHT22;52812;48.960;9.108;2023-04-15T09:51:08;14.10;99.90
3086;DHT22;52812;48.960;9.108;2023-04-15T09:53:35;14.00;99.90
3086;DHT22;52812;48.960;9.108;2023-04-15T09:56:03;14.00;99.90
3086;DHT22;52812;48.960;9.108;2023-04-15T09:58:30;14.10;99.90
3086;DHT22;52812;48.960;9.108;2023-04-15T10:00:57;13.90;99.90
3086;DHT22;52812;48.960;9.108;2023-04-15T10:03:30;13.90;99.90
3086;DHT22;52812;48.960;9.108;2023-04-15T10:05:58;13.90;99.90
3086;DHT22;52812;48.960;9.108;2023-04-15T10:08:26;13.90;99.90
3086;DHT22;52812;48.960;9.108;2023-04-15T10:10:52;13.70;99.90
3086;DHT22;52812;48.960;9.108;2023-04-15T10:13:23;13.90;99.90
3086;DHT22;52812;48.960;9.108;2023-04-15T10:16:04;14.00;99.90
3086;DHT22;52812;48.960;9.108;2023-04-15T10:18:37;14.20;99.90
3086;DHT22;52812;48.960;9.108;2023-04-15T10:21:05;14.40;99.90
3086;DHT22;52812;48.960;9.108;2023-04-15T10:23:31;14.40;99.90
3086;DHT22;52812;48.960;9.108;2023-04-15T10:25:57;14.30;99.90
3086;DHT22;52812;48.960;9.108;2023-04-15T10:28:23;14.10;99.90
3086;DHT22;52812;48.960;9.108;2023-04-15T10:30:51;14.10;99.90
3086;DHT22;52812;48.960;9.108;2023-04-15T10:33:20;13.80;99.90
3086;DHT22;52812;48.960;9.108;2023-04-15T10:35:47;13.70;99.90
3086;DHT22;52812;48.960;9.108;2023-04-15T10:41:23;13.80;99.90
3086;DHT22;52812;48.960;9.108;2023-04-15T10:44:02;13.60;99.90
3086;DHT22;52812;48.960;9.108;2023-04-15T10:46:38;13.90;99.90
3086;DHT22;52812;48.960;9.108;2023-04-15T10:49:08;13.90;99.90
3086;DHT22;52812;48.960;9.108;2023-04-15T10:51:51;14.00;99.90
3086;DHT22;52812;48.960;9.108;2023-04-15T10:59:31;14.50;99.90
3086;DHT22;52812;48.960;9.108;2023-04-15T11:02:01;14.70;99.90
3086;DHT22;52812;48.960;9.108;2023-04-15T11:04:58;14.40;99.90
3086;DHT22;52812;48.960;9.108;2023-04-15T11:12:39;14.30;99.90
3086;DHT22;52812;48.960;9.108;2023-04-15T11:17:55;14.20;99.90
3086;DHT22;52812;48.960;9.108;2023-04-15T11:20:21;14.20;99.90
3086;DHT22;52812;48.960;9.108;2023-04-15T11:22:51;14.40;99.90
3086;DHT22;52812;48.960;9.108;2023-04-15T11:25:24;14.50;99.90
3086;DHT22;52812;48.960;9.108;2023-04-15T11:27:51;14.60;99.90
3086;DHT22;52812;48.960;9.108;2023-04-15T11:32:53;14.20;99.90
3086;DHT22;52812;48.960;9.108;2023-04-15T11:35:19;14.30;99.90
3086;DHT22;52812;48.960;9.108;2023-04-15T11:37:45;14.30;99.90
3086;DHT22;52812;48.960;9.108;2023-04-15T11:40:11;14.30;99.90
3086;DHT22;52812;48.960;9.108;2023-04-15T11:42:38;14.30;99.90
3086;DHT22;52812;48.960;9.108;2023-04-15T11:45:12;14.30;99.90
3086;DHT22;52812;48.960;9.108;2023-04-15T11:47:39;14.60;99.90
3086;DHT22;52812;48.960;9.108;2023-04-15T11:50:18;14.60;99.90
3086;DHT22;52812;48.960;9.108;2023-04-15T11:52:55;14.30;99.90
3086;DHT22;52812;48.960;9.108;2023-04-15T11:55:22;14.10;99.90
3086;DHT22;52812;48.960;9.108;2023-04-15T11:57:49;13.80;99.90
3086;DHT22;52812;48.960;9.108;2023-04-15T12:00:16;13.00;99.90
3086;DHT22;52812;48.960;9.108;2023-04-15T12:02:42;12.10;99.90
3086;DHT22;52812;48.960;9.108;2023-04-15T12:05:08;11.10;99.90
3086;DHT22;52812;48.960;9.108;2023-04-15T12:07:56;10.50;99.90
3086;DHT22;52812;48.960;9.108;2023-04-15T12:10:23;10.10;99.90
3086;DHT22;52812;48.960;9.108;2023-04-15T12:12:51;9.80;99.90
3086;DHT22;52812;48.960;9.108;2023-04-15T12:15:21;9.80;99.90
3086;DHT22;52812;48.960;9.108;2023-04-15T12:17:47;9.80;99.90
3086;DHT22;52812;48.960;9.108;2023-04-15T12:20:13;10.00;99.90
3086;DHT22;52812;48.960;9.108;2023-04-15T12:22:38;10.20;99.90
3086;DHT22;52812;48.960;9.108;2023-04-15T12:25:04;10.40;99.90
3086;DHT22;52812;48.960;9.108;2023-04-15T12:27:30;10.70;99.90
3086;DHT22;52812;48.960;9.108;2023-04-15T12:30:05;10.90;99.90
3086;DHT22;52812;48.960;9.108;2023-04-15T12:32:34;11.20;99.90
3086;DHT22;52812;48.960;9.108;2023-04-15T12:35:00;11.30;99.90
3086;DHT22;52812;48.960;9.108;2023-04-15T12:37:26;11.50;99.90
3086;DHT22;52812;48.960;9.108;2023-04-15T12:39:51;11.60;99.90
3086;DHT22;52812;48.960;9.108;2023-04-15T12:42:18;11.60;99.90
3086;DHT22;52812;48.960;9.108;2023-04-15T12:44:44;11.70;99.90
3086;DHT22;52812;48.960;9.108;2023-04-15T12:47:11;11.70;99.90
3086;DHT22;52812;48.960;9.108;2023-04-15T12:49:36;11.80;99.90
3086;DHT22;52812;48.960;9.108;2023-04-15T12:52:03;11.80;99.90
3086;DHT22;52812;48.960;9.108;2023-04-15T12:54:29;11.80;99.90
3086;DHT22;52812;48.960;9.108;2023-04-15T12:56:55;11.80;99.90
3086;DHT22;52812;48.960;9.108;2023-04-15T12:59:21;11.90;99.90
3086;DHT22;52812;48.960;9.108;2023-04-15T13:01:48;11.80;99.90
3086;DHT22;52812;48.960;9.108;2023-04-15T13:04:14;11.90;99.90
3086;DHT22;52812;48.960;9.108;2023-04-15T13:06:40;11.80;99.90
3086;DHT22;52812;48.960;9.108;2023-04-15T13:09:06;11.70;99.90
3086;DHT22;52812;48.960;9.108;2023-04-15T13:11:32;11.60;99.90
3086;DHT22;52812;48.960;9.108;2023-04-15T13:14:00;11.70;99.90
3086;DHT22;52812;48.960;9.108;2023-04-15T13:16:26;11.70;99.90
3086;DHT22;52812;48.960;9.108;2023-04-15T13:18:52;11.80;99.90
3086;DHT22;52812;48.960;9.108;2023-04-15T13:21:18;11.70;99.90
3086;DHT22;52812;48.960;9.108;2023-04-15T13:23:44;11.70;99.90
3086;DHT22;52812;48.960;9.108;2023-04-15T13:26:10;11.80;99.90
3086;DHT22;52812;48.960;9.108;2023-04-15T13:28:35;11.70;99.90
3086;DHT22;52812;48.960;9.108;2023-04-15T13:31:01;11.60;99.90
3086;DHT22;52812;48.960;9.108;2023-04-15T13:33:27;11.70;99.90
3086;DHT22;52812;48.960;9.108;2023-04-15T13:35:53;11.70;99.90
3086;DHT22;52812;48.960;9.108;2023-04-15T13:38:19;11.70;99.90
3086;DHT22;52812;48.960;9.108;2023-04-15T13:40:44;11.60;99.90
3086;DHT22;52812;48.960;9.108;2023-04-15T13:43:10;11.60;99.90
3086;DHT22;52812;48.960;9.108;2023-04-15T13:45:36;11.50;99.90
3086;DHT22;52812;48.960;9.108;2023-04-15T13:48:02;11.50;99.90
3086;DHT22;52812;48.960;9.108;2023-04-15T13:50:28;11.50;99.90
3086;DHT22;52812;48.960;9.108;2023-04-15T13:52:53;11.40;99.90
3086;DHT22;52812;48.960;9.108;2023-04-15T13:55:19;11.50;99.90
3086;DHT22;52812;48.960;9.108;2023-04-15T13:57:45;11.40;99.90
3086;DHT22;52812;48.960;9.108;2023-04-15T14:00:11;11.40;99.90
3086;DHT22;52812;48.960;9.108;2023-04-15T14:02:38;11.40;99.90
3086;DHT22;52812;48.960;9.108;2023-04-15T14:05:04;11.40;99.90
3086;DHT22;52812;48.960;9.108;2023-04-15T14:07:30;11.30;99.90
3086;DHT22;52812;48.960;9.108;2023-04-15T14:09:56;11.30;99.90
3086;DHT22;52812;48.960;9.108;2023-04-15T14:12:22;11.40;99.90
3086;DHT22;52812;48.960;9.108;2023-04-15T14:14:47;11.30;99.90
3086;DHT22;52812;48.960;9.108;2023-04-15T14:17:13;11.30;99.90
3086;DHT22;52812;48.960;9.108;2023-04-15T14:19:39;11.30;99.90
3086;DHT22;52812;48.960;9.108;2023-04-15T14:22:05;11.30;99.90
3086;DHT22;52812;48.960;9.108;2023-04-15T14:24:30;11.30;99.90
3086;DHT22;52812;48.960;9.108;2023-04-15T14:26:57;11.30;99.90
3086;DHT22;52812;48.960;9.108;2023-04-15T14:29:23;11.20;99.90
3086;DHT22;52812;48.960;9.108;2023-04-15T14:31:49;11.30;99.90
3086;DHT22;52812;48.960;9.108;2023-04-15T14:34:15;11.30;99.90
3086;DHT22;52812;48.960;9.108;2023-04-15T14:36:41;11.30;99.90
3086;DHT22;52812;48.960;9.108;2023-04-15T14:39:07;11.30;99.90
3086;DHT22;52812;48.960;9.108;2023-04-15T14:41:33;11.20;99.90
3086;DHT22;52812;48.960;9.108;2023-04-15T14:43:59;11.20;99.90
3086;DHT22;52812;48.960;9.108;2023-04-15T14:46:25;11.10;99.90
3086;DHT22;52812;48.960;9.108;2023-04-15T14:48:51;11.10;99.90
3086;DHT22;52812;48.960;9.108;2023-04-15T14:51:17;11.10;99.90
3086;DHT22;52812;48.960;9.108;2023-04-15T14:53:44;11.00;99.90
3086;DHT22;52812;48.960;9.108;2023-04-15T14:56:10;10.70;99.90
3086;DHT22;52812;48.960;9.108;2023-04-15T14:58:36;10.60;99.90
3086;DHT22;52812;48.960;9.108;2023-04-15T15:01:05;10.60;99.90
3086;DHT22;52812;48.960;9.108;2023-04-15T15:03:31;10.60;99.90
3086;DHT22;52812;48.960;9.108;2023-04-15T15:05:57;10.60;99.90
3086;DHT22;52812;48.960;9.108;2023-04-15T15:08:23;10.60;99.90
3086;DHT22;52812;48.960;9.108;2023-04-15T15:10:49;10.60;99.90
3086;DHT22;52812;48.960;9.108;2023-04-15T15:13:15;10.60;99.90
3086;DHT22;52812;48.960;9.108;2023-04-15T15:15:41;10.70;99.90
3086;DHT22;52812;48.960;9.108;2023-04-15T15:18:06;10.80;99.90
3086;DHT22;52812;48.960;9.108;2023-04-15T15:20:32;10.80;99.90
3086;DHT22;52812;48.960;9.108;2023-04-15T15:22:59;10.90;99.90
3086;DHT22;52812;48.960;9.108;2023-04-15T15:25:24;11.00;99.90
3086;DHT22;52812;48.960;9.108;2023-04-15T15:27:50;11.00;99.90
3086;DHT22;52812;48.960;9.108;2023-04-15T15:30:16;10.90;99.90
3086;DHT22;52812;48.960;9.108;2023-04-15T15:32:42;10.90;99.90
3086;DHT22;52812;48.960;9.108;2023-04-15T15:35:08;10.90;99.90
3086;DHT22;52812;48.960;9.108;2023-04-15T15:37:35;10.70;99.90
3086;DHT22;52812;48.960;9.108;2023-04-15T15:40:03;10.70;99.90
3086;DHT22;52812;48.960;9.108;2023-04-15T15:42:33;10.50;99.90
3086;DHT22;52812;48.960;9.108;2023-04-15T15:44:59;10.30;99.90
3086;DHT22;52812;48.960;9.108;2023-04-15T15:47:25;10.20;99.90
3086;DHT22;52812;48.960;9.108;2023-04-15T15:49:56;10.20;99.90
3086;DHT22;52812;48.960;9.108;2023-04-15T15:52:22;10.10;99.90
3086;DHT22;52812;48.960;9.108;2023-04-15T15:54:47;10.00;99.90
3086;DHT22;52812;48.960;9.108;2023-04-15T15:57:13;10.00;99.90
3086;DHT22;52812;48.960;9.108;2023-04-15T15:59:39;9.80;99.90
3086;DHT22;52812;48.960;9.108;2023-04-15T16:02:09;9.80;99.90
3086;DHT22;52812;48.960;9.108;2023-04-15T16:04:36;9.70;99.90
3086;DHT22;52812;48.960;9.108;2023-04-15T16:07:02;9.70;99.90
3086;DHT22;52812;48.960;9.108;2023-04-15T16:09:29;9.70;99.90